createdAt,value
2019-01-18T21:01:16.017Z,-1.10
2019-01-18T21:03:57.555Z,-1.20
2019-01-18T21:06:32.960Z,-1.20
2019-01-18T21:09:43.745Z,-1.20
2019-01-18T21:12:20.893Z,-1.20
2019-01-18T21:15:09.928Z,-1.20
2019-01-18T21:17:45.530Z,-1.20
2019-01-18T21:20:46.639Z,-1.30
2019-01-18T21:23:35.981Z,-1.30
2019-01-18T21:26:14.106Z,-1.20
2019-01-18T21:29:07.624Z,-1.20
2019-01-18T21:31:42.891Z,-1.20
2019-01-18T21:34:33.080Z,-1.20
2019-01-18T21:37:28.422Z,-1.30
2019-01-18T21:40:15.860Z,-1.30
2019-01-18T21:42:49.396Z,-1.40
2019-01-18T21:45:39.911Z,-1.30
2019-01-18T21:48:21.491Z,-1.40
2019-01-18T21:51:13.614Z,-1.30
2019-01-18T21:53:46.173Z,-1.30
2019-01-18T21:56:30.733Z,-1.30
2019-01-18T21:59:15.138Z,-1.20
2019-01-18T22:02:02.339Z,-1.10
2019-01-18T22:04:40.622Z,-1.10
2019-01-18T22:07:20.437Z,-1.10
2019-01-18T22:09:58.092Z,-1.10
2019-01-18T22:12:45.635Z,-1.10
2019-01-18T22:15:23.907Z,-1.10
2019-01-18T22:17:59.118Z,-1.10
2019-01-18T22:20:55.433Z,-1.10
2019-01-18T22:23:31.121Z,-1.10
2019-01-18T22:26:06.358Z,-1.00
2019-01-18T22:28:41.571Z,-1.00
2019-01-18T22:31:22.887Z,-1.00
2019-01-18T22:34:12.142Z,-1.00
2019-01-18T22:37:05.724Z,-1.00
2019-01-18T22:39:44.110Z,-1.00
2019-01-18T22:42:16.680Z,-1.10
2019-01-18T22:44:51.885Z,-1.10
2019-01-18T22:47:36.066Z,-1.10
2019-01-18T22:50:23.645Z,-1.10
2019-01-18T22:53:10.977Z,-1.10
2019-01-18T22:55:55.529Z,-1.00
2019-01-18T22:58:58.196Z,-1.00
2019-01-18T23:01:45.699Z,-0.90
2019-01-18T23:04:29.977Z,-0.90
2019-01-18T23:07:11.178Z,-0.90
2019-01-18T23:09:49.379Z,-0.80
2019-01-18T23:12:51.850Z,-0.80
2019-01-18T23:15:42.015Z,-0.80
2019-01-18T23:18:36.624Z,-0.80
2019-01-18T23:21:43.426Z,-0.80
2019-01-18T23:24:16.292Z,-0.90
2019-01-18T23:26:51.452Z,-0.90
2019-01-18T23:29:32.989Z,-0.90
2019-01-18T23:32:20.433Z,-0.90
2019-01-18T23:35:03.183Z,-0.90
2019-01-18T23:37:35.956Z,-0.80
2019-01-18T23:40:23.261Z,-0.70
2019-01-18T23:43:15.035Z,-0.70
2019-01-18T23:45:50.571Z,-0.60
2019-01-18T23:48:51.365Z,-0.70
2019-01-18T23:51:32.850Z,-0.70
2019-01-18T23:54:08.395Z,-0.60
2019-01-18T23:56:53.294Z,-0.60
2019-01-18T23:59:25.865Z,-0.50
